sensor_id;sensor_type;location;lat;lon;timestamp;P1;durP1;ratioP1;P2;durP2;ratioP2
54881;SDS011;40775;51.448;4.742;2022-09-03T00:01:44;2.50;;;1.30;;
54881;SDS011;40775;51.448;4.742;2022-09-03T00:04:23;2.10;;;1.20;;
54881;SDS011;40775;51.448;4.742;2022-09-03T00:07:02;1.90;;;1.13;;
54881;SDS011;40775;51.448;4.742;2022-09-03T00:09:35;4.07;;;1.40;;
54881;SDS011;40775;51.448;4.742;2022-09-03T00:12:13;2.50;;;1.20;;
54881;SDS011;40775;51.448;4.742;2022-09-03T00:14:46;2.03;;;1.00;;
54881;SDS011;40775;51.448;4.742;2022-09-03T00:22:50;2.95;;;1.20;;
54881;SDS011;40775;51.448;4.742;2022-09-03T00:25:33;2.33;;;1.00;;
54881;SDS011;40775;51.448;4.742;2022-09-03T00:28:10;1.88;;;1.20;;
54881;SDS011;40775;51.448;4.742;2022-09-03T00:30:45;2.58;;;1.20;;
54881;SDS011;40775;51.448;4.742;2022-09-03T00:33:20;2.72;;;1.38;;
54881;SDS011;40775;51.448;4.742;2022-09-03T00:38:28;1.97;;;1.20;;
54881;SDS011;40775;51.448;4.742;2022-09-03T00:46:21;1.98;;;1.02;;
54881;SDS011;40775;51.448;4.742;2022-09-03T00:54:25;2.23;;;1.07;;
54881;SDS011;40775;51.448;4.742;2022-09-03T01:00:10;1.70;;;0.95;;
54881;SDS011;40775;51.448;4.742;2022-09-03T01:13:31;3.50;;;1.15;;
54881;SDS011;40775;51.448;4.742;2022-09-03T01:16:20;2.55;;;1.05;;
54881;SDS011;40775;51.448;4.742;2022-09-03T01:27:45;2.58;;;1.20;;
54881;SDS011;40775;51.448;4.742;2022-09-03T01:30:27;3.47;;;1.25;;
54881;SDS011;40775;51.448;4.742;2022-09-03T01:41:25;2.00;;;1.08;;
54881;SDS011;40775;51.448;4.742;2022-09-03T01:48:15;1.85;;;1.08;;
54881;SDS011;40775;51.448;4.742;2022-09-03T01:51:10;2.90;;;1.50;;
54881;SDS011;40775;51.448;4.742;2022-09-03T02:00:05;2.63;;;1.13;;
54881;SDS011;40775;51.448;4.742;2022-09-03T02:02:40;4.20;;;1.37;;
54881;SDS011;40775;51.448;4.742;2022-09-03T02:05:29;2.42;;;1.23;;
54881;SDS011;40775;51.448;4.742;2022-09-03T02:08:02;1.88;;;1.05;;
54881;SDS011;40775;51.448;4.742;2022-09-03T02:10:42;3.13;;;1.08;;
54881;SDS011;40775;51.448;4.742;2022-09-03T02:15:55;2.17;;;1.08;;
54881;SDS011;40775;51.448;4.742;2022-09-03T02:18:30;2.55;;;1.17;;
54881;SDS011;40775;51.448;4.742;2022-09-03T02:21:04;1.40;;;1.10;;
54881;SDS011;40775;51.448;4.742;2022-09-03T02:23:32;1.83;;;1.08;;
54881;SDS011;40775;51.448;4.742;2022-09-03T02:26:00;2.53;;;1.20;;
54881;SDS011;40775;51.448;4.742;2022-09-03T02:28:29;2.42;;;1.20;;
54881;SDS011;40775;51.448;4.742;2022-09-03T02:30:58;1.75;;;1.02;;
54881;SDS011;40775;51.448;4.742;2022-09-03T02:33:25;3.20;;;1.40;;
54881;SDS011;40775;51.448;4.742;2022-09-03T02:35:53;2.47;;;1.17;;
54881;SDS011;40775;51.448;4.742;2022-09-03T02:38:22;1.85;;;1.20;;
54881;SDS011;40775;51.448;4.742;2022-09-03T02:40:51;1.67;;;1.00;;
54881;SDS011;40775;51.448;4.742;2022-09-03T02:46:08;2.50;;;1.10;;
54881;SDS011;40775;51.448;4.742;2022-09-03T02:48:43;1.63;;;1.08;;
54881;SDS011;40775;51.448;4.742;2022-09-03T02:51:10;1.88;;;1.08;;
54881;SDS011;40775;51.448;4.742;2022-09-03T02:53:39;2.22;;;1.35;;
54881;SDS011;40775;51.448;4.742;2022-09-03T02:56:08;2.93;;;1.30;;
54881;SDS011;40775;51.448;4.742;2022-09-03T02:58:35;3.20;;;1.20;;
54881;SDS011;40775;51.448;4.742;2022-09-03T03:01:03;2.08;;;1.15;;
54881;SDS011;40775;51.448;4.742;2022-09-03T03:03:30;1.90;;;1.10;;
54881;SDS011;40775;51.448;4.742;2022-09-03T03:05:59;2.67;;;1.23;;
54881;SDS011;40775;51.448;4.742;2022-09-03T03:08:30;2.20;;;1.10;;
54881;SDS011;40775;51.448;4.742;2022-09-03T03:11:00;3.00;;;1.48;;
54881;SDS011;40775;51.448;4.742;2022-09-03T03:13:28;3.15;;;1.30;;
54881;SDS011;40775;51.448;4.742;2022-09-03T03:16:00;2.25;;;1.23;;
54881;SDS011;40775;51.448;4.742;2022-09-03T03:18:31;2.38;;;1.20;;
54881;SDS011;40775;51.448;4.742;2022-09-03T03:21:06;3.83;;;1.27;;
54881;SDS011;40775;51.448;4.742;2022-09-03T03:23:37;3.60;;;1.30;;
54881;SDS011;40775;51.448;4.742;2022-09-03T03:26:06;2.33;;;1.20;;
54881;SDS011;40775;51.448;4.742;2022-09-03T03:28:38;1.88;;;1.10;;
54881;SDS011;40775;51.448;4.742;2022-09-03T03:31:11;1.87;;;1.20;;
54881;SDS011;40775;51.448;4.742;2022-09-03T03:33:55;3.13;;;1.17;;
54881;SDS011;40775;51.448;4.742;2022-09-03T03:36:26;2.03;;;1.02;;
54881;SDS011;40775;51.448;4.742;2022-09-03T03:38:57;2.27;;;1.30;;
54881;SDS011;40775;51.448;4.742;2022-09-03T03:41:27;2.40;;;1.27;;
54881;SDS011;40775;51.448;4.742;2022-09-03T03:44:00;1.63;;;1.00;;
54881;SDS011;40775;51.448;4.742;2022-09-03T03:46:35;2.33;;;1.27;;
54881;SDS011;40775;51.448;4.742;2022-09-03T03:49:05;2.63;;;1.15;;
54881;SDS011;40775;51.448;4.742;2022-09-03T03:51:35;1.85;;;1.05;;
54881;SDS011;40775;51.448;4.742;2022-09-03T03:54:03;1.88;;;1.00;;
54881;SDS011;40775;51.448;4.742;2022-09-03T03:56:31;2.42;;;1.15;;
54881;SDS011;40775;51.448;4.742;2022-09-03T03:59:02;3.15;;;1.50;;
54881;SDS011;40775;51.448;4.742;2022-09-03T04:01:32;4.37;;;1.20;;
54881;SDS011;40775;51.448;4.742;2022-09-03T04:03:59;3.53;;;1.50;;
54881;SDS011;40775;51.448;4.742;2022-09-03T04:06:26;3.10;;;1.30;;
54881;SDS011;40775;51.448;4.742;2022-09-03T04:08:54;2.47;;;1.43;;
54881;SDS011;40775;51.448;4.742;2022-09-03T04:11:22;3.00;;;1.25;;
54881;SDS011;40775;51.448;4.742;2022-09-03T04:13:50;2.72;;;1.38;;
54881;SDS011;40775;51.448;4.742;2022-09-03T04:16:22;3.42;;;1.30;;
54881;SDS011;40775;51.448;4.742;2022-09-03T04:18:53;4.07;;;1.23;;
54881;SDS011;40775;51.448;4.742;2022-09-03T04:21:26;2.47;;;1.25;;
54881;SDS011;40775;51.448;4.742;2022-09-03T04:23:55;3.10;;;1.40;;
54881;SDS011;40775;51.448;4.742;2022-09-03T04:26:24;4.38;;;1.30;;
54881;SDS011;40775;51.448;4.742;2022-09-03T04:28:57;3.17;;;1.13;;
54881;SDS011;40775;51.448;4.742;2022-09-03T04:31:31;4.20;;;1.40;;
54881;SDS011;40775;51.448;4.742;2022-09-03T04:34:00;2.20;;;1.15;;
54881;SDS011;40775;51.448;4.742;2022-09-03T04:36:28;3.57;;;1.30;;
54881;SDS011;40775;51.448;4.742;2022-09-03T04:38:57;2.33;;;1.10;;
54881;SDS011;40775;51.448;4.742;2022-09-03T04:41:27;2.80;;;1.13;;
54881;SDS011;40775;51.448;4.742;2022-09-03T04:43:58;2.28;;;1.30;;
54881;SDS011;40775;51.448;4.742;2022-09-03T04:46:26;5.75;;;1.45;;
54881;SDS011;40775;51.448;4.742;2022-09-03T04:48:59;3.92;;;1.40;;
54881;SDS011;40775;51.448;4.742;2022-09-03T04:51:27;2.65;;;1.27;;
54881;SDS011;40775;51.448;4.742;2022-09-03T04:53:57;4.05;;;1.25;;
54881;SDS011;40775;51.448;4.742;2022-09-03T04:56:30;2.20;;;1.17;;
54881;SDS011;40775;51.448;4.742;2022-09-03T04:59:01;2.65;;;1.40;;
54881;SDS011;40775;51.448;4.742;2022-09-03T05:01:33;3.65;;;1.13;;
54881;SDS011;40775;51.448;4.742;2022-09-03T05:04:03;3.05;;;1.38;;
54881;SDS011;40775;51.448;4.742;2022-09-03T05:06:32;3.78;;;1.40;;
54881;SDS011;40775;51.448;4.742;2022-09-03T05:09:00;3.17;;;1.15;;
54881;SDS011;40775;51.448;4.742;2022-09-03T05:11:28;2.97;;;1.13;;
54881;SDS011;40775;51.448;4.742;2022-09-03T05:13:56;2.90;;;1.40;;
54881;SDS011;40775;51.448;4.742;2022-09-03T05:16:25;1.77;;;1.05;;
54881;SDS011;40775;51.448;4.742;2022-09-03T05:18:55;1.95;;;1.10;;
54881;SDS011;40775;51.448;4.742;2022-09-03T05:21:25;2.25;;;1.13;;
54881;SDS011;40775;51.448;4.742;2022-09-03T05:23:53;2.50;;;1.20;;
54881;SDS011;40775;51.448;4.742;2022-09-03T05:26:22;2.38;;;1.23;;
54881;SDS011;40775;51.448;4.742;2022-09-03T05:28:56;1.88;;;1.20;;
54881;SDS011;40775;51.448;4.742;2022-09-03T05:31:29;2.20;;;1.17;;
54881;SDS011;40775;51.448;4.742;2022-09-03T05:33:58;2.53;;;1.45;;
54881;SDS011;40775;51.448;4.742;2022-09-03T05:36:29;2.50;;;1.30;;
54881;SDS011;40775;51.448;4.742;2022-09-03T05:38:59;4.28;;;1.15;;
54881;SDS011;40775;51.448;4.742;2022-09-03T05:41:27;1.80;;;1.25;;
54881;SDS011;40775;51.448;4.742;2022-09-03T05:43:55;3.55;;;1.40;;
54881;SDS011;40775;51.448;4.742;2022-09-03T05:46:28;2.15;;;1.13;;
54881;SDS011;40775;51.448;4.742;2022-09-03T05:49:02;1.70;;;0.90;;
54881;SDS011;40775;51.448;4.742;2022-09-03T05:51:32;2.90;;;1.23;;
54881;SDS011;40775;51.448;4.742;2022-09-03T05:54:01;3.40;;;1.20;;
54881;SDS011;40775;51.448;4.742;2022-09-03T05:56:29;2.75;;;1.20;;
54881;SDS011;40775;51.448;4.742;2022-09-03T05:58:59;2.45;;;1.00;;
54881;SDS011;40775;51.448;4.742;2022-09-03T06:01:37;2.42;;;1.23;;
54881;SDS011;40775;51.448;4.742;2022-09-03T06:04:18;1.90;;;1.00;;
54881;SDS011;40775;51.448;4.742;2022-09-03T06:06:45;1.98;;;1.10;;
54881;SDS011;40775;51.448;4.742;2022-09-03T06:09:15;2.10;;;1.00;;
54881;SDS011;40775;51.448;4.742;2022-09-03T06:11:45;2.78;;;1.10;;
54881;SDS011;40775;51.448;4.742;2022-09-03T06:14:15;2.13;;;1.10;;
54881;SDS011;40775;51.448;4.742;2022-09-03T06:16:43;2.08;;;1.10;;
54881;SDS011;40775;51.448;4.742;2022-09-03T06:19:18;2.47;;;1.27;;
54881;SDS011;40775;51.448;4.742;2022-09-03T06:21:46;1.90;;;1.20;;
54881;SDS011;40775;51.448;4.742;2022-09-03T06:24:16;2.53;;;1.20;;
54881;SDS011;40775;51.448;4.742;2022-09-03T06:26:53;2.50;;;1.20;;
54881;SDS011;40775;51.448;4.742;2022-09-03T06:29:21;2.00;;;1.00;;
54881;SDS011;40775;51.448;4.742;2022-09-03T06:31:48;1.55;;;1.00;;
54881;SDS011;40775;51.448;4.742;2022-09-03T06:34:16;2.63;;;1.20;;
54881;SDS011;40775;51.448;4.742;2022-09-03T06:36:44;2.90;;;1.20;;
54881;SDS011;40775;51.448;4.742;2022-09-03T06:39:11;2.15;;;1.00;;
54881;SDS011;40775;51.448;4.742;2022-09-03T06:41:38;1.98;;;1.08;;
54881;SDS011;40775;51.448;4.742;2022-09-03T06:44:06;2.03;;;1.05;;
54881;SDS011;40775;51.448;4.742;2022-09-03T06:46:38;2.00;;;1.10;;
54881;SDS011;40775;51.448;4.742;2022-09-03T06:49:08;2.60;;;1.30;;
54881;SDS011;40775;51.448;4.742;2022-09-03T06:51:37;3.42;;;1.50;;
54881;SDS011;40775;51.448;4.742;2022-09-03T06:54:05;1.90;;;1.08;;
54881;SDS011;40775;51.448;4.742;2022-09-03T06:56:35;1.98;;;1.10;;
54881;SDS011;40775;51.448;4.742;2022-09-03T06:59:07;2.70;;;1.30;;
54881;SDS011;40775;51.448;4.742;2022-09-03T07:01:40;1.50;;;0.90;;
54881;SDS011;40775;51.448;4.742;2022-09-03T07:04:11;2.33;;;1.05;;
54881;SDS011;40775;51.448;4.742;2022-09-03T07:06:45;1.70;;;1.00;;
54881;SDS011;40775;51.448;4.742;2022-09-03T07:09:12;2.22;;;1.20;;
54881;SDS011;40775;51.448;4.742;2022-09-03T07:11:41;2.20;;;1.17;;
54881;SDS011;40775;51.448;4.742;2022-09-03T07:14:13;2.38;;;1.10;;
54881;SDS011;40775;51.448;4.742;2022-09-03T07:16:43;2.53;;;1.13;;
54881;SDS011;40775;51.448;4.742;2022-09-03T07:19:11;2.47;;;1.20;;
54881;SDS011;40775;51.448;4.742;2022-09-03T07:21:39;3.03;;;1.20;;
54881;SDS011;40775;51.448;4.742;2022-09-03T07:24:14;2.08;;;0.98;;
54881;SDS011;40775;51.448;4.742;2022-09-03T07:26:42;2.83;;;1.13;;
54881;SDS011;40775;51.448;4.742;2022-09-03T07:29:11;2.13;;;1.08;;
54881;SDS011;40775;51.448;4.742;2022-09-03T07:31:41;2.25;;;1.08;;
54881;SDS011;40775;51.448;4.742;2022-09-03T07:34:10;2.33;;;1.10;;
54881;SDS011;40775;51.448;4.742;2022-09-03T07:36:39;3.30;;;1.15;;
54881;SDS011;40775;51.448;4.742;2022-09-03T07:39:16;2.27;;;1.23;;
54881;SDS011;40775;51.448;4.742;2022-09-03T07:41:44;3.20;;;1.40;;
54881;SDS011;40775;51.448;4.742;2022-09-03T07:44:12;2.42;;;1.20;;
54881;SDS011;40775;51.448;4.742;2022-09-03T07:46:44;2.17;;;1.30;;
54881;SDS011;40775;51.448;4.742;2022-09-03T07:49:13;2.10;;;1.00;;
54881;SDS011;40775;51.448;4.742;2022-09-03T07:51:40;2.00;;;1.13;;
54881;SDS011;40775;51.448;4.742;2022-09-03T07:54:08;2.03;;;1.00;;
54881;SDS011;40775;51.448;4.742;2022-09-03T07:56:37;1.60;;;0.95;;
54881;SDS011;40775;51.448;4.742;2022-09-03T07:59:05;2.00;;;1.10;;
54881;SDS011;40775;51.448;4.742;2022-09-03T08:01:34;2.00;;;1.00;;
54881;SDS011;40775;51.448;4.742;2022-09-03T08:04:04;2.20;;;1.00;;
54881;SDS011;40775;51.448;4.742;2022-09-03T08:06:35;2.25;;;1.20;;
54881;SDS011;40775;51.448;4.742;2022-09-03T08:09:05;2.90;;;0.95;;
54881;SDS011;40775;51.448;4.742;2022-09-03T08:11:35;2.42;;;1.23;;
54881;SDS011;40775;51.448;4.742;2022-09-03T08:14:05;2.28;;;1.10;;
54881;SDS011;40775;51.448;4.742;2022-09-03T08:16:35;1.80;;;1.02;;
54881;SDS011;40775;51.448;4.742;2022-09-03T08:19:08;2.90;;;1.38;;
54881;SDS011;40775;51.448;4.742;2022-09-03T08:21:37;2.20;;;1.00;;
54881;SDS011;40775;51.448;4.742;2022-09-03T08:24:07;2.60;;;1.30;;
54881;SDS011;40775;51.448;4.742;2022-09-03T08:26:37;2.78;;;1.10;;
54881;SDS011;40775;51.448;4.742;2022-09-03T08:29:16;2.65;;;1.10;;
54881;SDS011;40775;51.448;4.742;2022-09-03T08:31:44;1.90;;;1.05;;
54881;SDS011;40775;51.448;4.742;2022-09-03T08:34:11;1.98;;;1.00;;
54881;SDS011;40775;51.448;4.742;2022-09-03T08:36:40;1.95;;;1.10;;
54881;SDS011;40775;51.448;4.742;2022-09-03T08:39:08;2.05;;;0.93;;
54881;SDS011;40775;51.448;4.742;2022-09-03T08:50:16;1.30;;;0.90;;
54881;SDS011;40775;51.448;4.742;2022-09-03T08:58:21;2.25;;;1.05;;
54881;SDS011;40775;51.448;4.742;2022-09-03T09:06:34;1.53;;;0.87;;
54881;SDS011;40775;51.448;4.742;2022-09-03T09:09:26;1.13;;;0.80;;
54881;SDS011;40775;51.448;4.742;2022-09-03T09:12:32;1.77;;;0.98;;
54881;SDS011;40775;51.448;4.742;2022-09-03T09:15:25;1.65;;;0.90;;
54881;SDS011;40775;51.448;4.742;2022-09-03T09:18:01;1.30;;;0.77;;
54881;SDS011;40775;51.448;4.742;2022-09-03T09:20:47;1.60;;;0.85;;
54881;SDS011;40775;51.448;4.742;2022-09-03T09:23:28;1.20;;;0.75;;
54881;SDS011;40775;51.448;4.742;2022-09-03T09:26:23;1.40;;;0.70;;
54881;SDS011;40775;51.448;4.742;2022-09-03T09:28:55;2.22;;;1.05;;
54881;SDS011;40775;51.448;4.742;2022-09-03T09:31:36;2.45;;;1.00;;
54881;SDS011;40775;51.448;4.742;2022-09-03T09:34:11;1.73;;;1.00;;
54881;SDS011;40775;51.448;4.742;2022-09-03T09:36:41;1.58;;;0.95;;
54881;SDS011;40775;51.448;4.742;2022-09-03T09:39:19;2.53;;;1.05;;
54881;SDS011;40775;51.448;4.742;2022-09-03T09:42:01;2.10;;;0.95;;
54881;SDS011;40775;51.448;4.742;2022-09-03T09:44:39;1.85;;;0.90;;
54881;SDS011;40775;51.448;4.742;2022-09-03T09:47:15;2.78;;;1.00;;
54881;SDS011;40775;51.448;4.742;2022-09-03T09:49:57;3.03;;;1.20;;
54881;SDS011;40775;51.448;4.742;2022-09-03T09:52:28;2.63;;;1.10;;
54881;SDS011;40775;51.448;4.742;2022-09-03T09:55:07;2.30;;;1.13;;
54881;SDS011;40775;51.448;4.742;2022-09-03T09:57:44;3.08;;;1.23;;
54881;SDS011;40775;51.448;4.742;2022-09-03T10:00:29;1.50;;;0.80;;
54881;SDS011;40775;51.448;4.742;2022-09-03T10:03:05;1.60;;;0.88;;
54881;SDS011;40775;51.448;4.742;2022-09-03T10:05:39;2.10;;;1.10;;
54881;SDS011;40775;51.448;4.742;2022-09-03T10:08:23;2.22;;;0.90;;
54881;SDS011;40775;51.448;4.742;2022-09-03T10:10:56;3.13;;;1.10;;
54881;SDS011;40775;51.448;4.742;2022-09-03T10:13:34;1.75;;;1.10;;
54881;SDS011;40775;51.448;4.742;2022-09-03T10:19:04;2.05;;;1.02;;
54881;SDS011;40775;51.448;4.742;2022-09-03T10:22:00;1.55;;;0.88;;
54881;SDS011;40775;51.448;4.742;2022-09-03T10:24:51;2.63;;;0.90;;
54881;SDS011;40775;51.448;4.742;2022-09-03T10:27:24;3.00;;;1.10;;
54881;SDS011;40775;51.448;4.742;2022-09-03T10:29:57;1.70;;;0.85;;
54881;SDS011;40775;51.448;4.742;2022-09-03T10:32:51;1.85;;;1.00;;
54881;SDS011;40775;51.448;4.742;2022-09-03T10:35:45;1.42;;;0.90;;
54881;SDS011;40775;51.448;4.742;2022-09-03T10:38:32;1.65;;;0.90;;
54881;SDS011;40775;51.448;4.742;2022-09-03T10:41:16;8.55;;;2.10;;
54881;SDS011;40775;51.448;4.742;2022-09-03T10:44:08;5.07;;;1.48;;
54881;SDS011;40775;51.448;4.742;2022-09-03T10:50:35;5.07;;;1.50;;
54881;SDS011;40775;51.448;4.742;2022-09-03T10:53:34;3.28;;;1.15;;
54881;SDS011;40775;51.448;4.742;2022-09-03T10:56:21;2.78;;;1.02;;
54881;SDS011;40775;51.448;4.742;2022-09-03T11:02:19;3.60;;;1.13;;
54881;SDS011;40775;51.448;4.742;2022-09-03T11:05:03;2.55;;;1.33;;
54881;SDS011;40775;51.448;4.742;2022-09-03T11:07:49;2.88;;;1.08;;
54881;SDS011;40775;51.448;4.742;2022-09-03T11:10:25;2.20;;;1.10;;
54881;SDS011;40775;51.448;4.742;2022-09-03T11:13:11;3.45;;;1.42;;
54881;SDS011;40775;51.448;4.742;2022-09-03T11:15:50;1.85;;;1.20;;
54881;SDS011;40775;51.448;4.742;2022-09-03T11:21:07;3.85;;;1.23;;
54881;SDS011;40775;51.448;4.742;2022-09-03T11:23:45;1.55;;;1.00;;
54881;SDS011;40775;51.448;4.742;2022-09-03T11:26:40;1.67;;;1.10;;
54881;SDS011;40775;51.448;4.742;2022-09-03T11:34:46;2.47;;;1.00;;
54881;SDS011;40775;51.448;4.742;2022-09-03T11:39:55;1.58;;;1.00;;
54881;SDS011;40775;51.448;4.742;2022-09-03T11:42:37;1.50;;;1.00;;
54881;SDS011;40775;51.448;4.742;2022-09-03T11:47:55;2.40;;;1.02;;
54881;SDS011;40775;51.448;4.742;2022-09-03T11:50:28;3.25;;;1.23;;
54881;SDS011;40775;51.448;4.742;2022-09-03T11:58:39;2.08;;;0.90;;
54881;SDS011;40775;51.448;4.742;2022-09-03T12:01:13;2.53;;;1.20;;
54881;SDS011;40775;51.448;4.742;2022-09-03T12:03:50;1.55;;;0.90;;
54881;SDS011;40775;51.448;4.742;2022-09-03T12:09:31;2.03;;;1.17;;
54881;SDS011;40775;51.448;4.742;2022-09-03T12:18:02;5.73;;;1.80;;
54881;SDS011;40775;51.448;4.742;2022-09-03T12:20:58;5.32;;;1.70;;
54881;SDS011;40775;51.448;4.742;2022-09-03T12:23:32;4.72;;;1.35;;
54881;SDS011;40775;51.448;4.742;2022-09-03T12:26:08;5.97;;;1.27;;
54881;SDS011;40775;51.448;4.742;2022-09-03T12:28:52;2.25;;;1.10;;
54881;SDS011;40775;51.448;4.742;2022-09-03T12:31:22;3.63;;;1.27;;
54881;SDS011;40775;51.448;4.742;2022-09-03T12:33:57;3.72;;;1.35;;
54881;SDS011;40775;51.448;4.742;2022-09-03T12:36:37;2.45;;;1.20;;
54881;SDS011;40775;51.448;4.742;2022-09-03T12:39:08;1.83;;;1.10;;
54881;SDS011;40775;51.448;4.742;2022-09-03T12:42:02;2.50;;;1.05;;
54881;SDS011;40775;51.448;4.742;2022-09-03T12:44:37;1.65;;;0.93;;
54881;SDS011;40775;51.448;4.742;2022-09-03T12:50:03;1.60;;;1.05;;
54881;SDS011;40775;51.448;4.742;2022-09-03T12:52:49;1.65;;;1.10;;
54881;SDS011;40775;51.448;4.742;2022-09-03T12:55:28;2.13;;;1.13;;
54881;SDS011;40775;51.448;4.742;2022-09-03T13:03:43;1.97;;;1.20;;
54881;SDS011;40775;51.448;4.742;2022-09-03T13:06:17;2.63;;;1.10;;
54881;SDS011;40775;51.448;4.742;2022-09-03T13:08:49;1.90;;;1.23;;
54881;SDS011;40775;51.448;4.742;2022-09-03T13:11:20;1.88;;;1.10;;
54881;SDS011;40775;51.448;4.742;2022-09-03T13:13:51;2.22;;;1.20;;
54881;SDS011;40775;51.448;4.742;2022-09-03T13:16:28;1.90;;;0.98;;
54881;SDS011;40775;51.448;4.742;2022-09-03T13:19:33;2.08;;;1.23;;
54881;SDS011;40775;51.448;4.742;2022-09-03T13:28:04;3.50;;;1.35;;
54881;SDS011;40775;51.448;4.742;2022-09-03T13:34:02;3.03;;;1.45;;
54881;SDS011;40775;51.448;4.742;2022-09-03T13:36:45;2.17;;;1.15;;
54881;SDS011;40775;51.448;4.742;2022-09-03T13:39:28;1.98;;;1.00;;
54881;SDS011;40775;51.448;4.742;2022-09-03T13:45:14;2.97;;;1.23;;
54881;SDS011;40775;51.448;4.742;2022-09-03T13:47:56;4.23;;;1.40;;
54881;SDS011;40775;51.448;4.742;2022-09-03T13:54:26;1.83;;;1.10;;
54881;SDS011;40775;51.448;4.742;2022-09-03T13:56:53;3.80;;;1.40;;
54881;SDS011;40775;51.448;4.742;2022-09-03T13:59:28;2.75;;;1.50;;
54881;SDS011;40775;51.448;4.742;2022-09-03T14:02:27;3.00;;;1.30;;
54881;SDS011;40775;51.448;4.742;2022-09-03T14:10:18;3.25;;;1.10;;
54881;SDS011;40775;51.448;4.742;2022-09-03T14:12:53;3.25;;;1.10;;
54881;SDS011;40775;51.448;4.742;2022-09-03T14:15:47;2.42;;;1.25;;
54881;SDS011;40775;51.448;4.742;2022-09-03T14:21:07;2.85;;;1.10;;
54881;SDS011;40775;51.448;4.742;2022-09-03T14:23:50;2.10;;;1.10;;
54881;SDS011;40775;51.448;4.742;2022-09-03T14:26:28;2.55;;;1.30;;
54881;SDS011;40775;51.448;4.742;2022-09-03T14:34:16;2.50;;;1.40;;
54881;SDS011;40775;51.448;4.742;2022-09-03T14:50:33;2.58;;;1.25;;
54881;SDS011;40775;51.448;4.742;2022-09-03T14:56:16;2.50;;;1.30;;
54881;SDS011;40775;51.448;4.742;2022-09-03T14:59:17;2.03;;;1.10;;
54881;SDS011;40775;51.448;4.742;2022-09-03T15:05:05;1.63;;;1.10;;
54881;SDS011;40775;51.448;4.742;2022-09-03T15:12:52;2.47;;;1.13;;
54881;SDS011;40775;51.448;4.742;2022-09-03T15:21:01;2.45;;;1.00;;
54881;SDS011;40775;51.448;4.742;2022-09-03T15:34:51;1.30;;;0.70;;
54881;SDS011;40775;51.448;4.742;2022-09-03T15:40:22;1.73;;;1.02;;
54881;SDS011;40775;51.448;4.742;2022-09-03T15:43:38;1.17;;;0.85;;
54881;SDS011;40775;51.448;4.742;2022-09-03T15:51:19;1.77;;;1.05;;
54881;SDS011;40775;51.448;4.742;2022-09-03T15:54:16;1.83;;;1.00;;
54881;SDS011;40775;51.448;4.742;2022-09-03T15:57:08;1.83;;;1.08;;
54881;SDS011;40775;51.448;4.742;2022-09-03T16:02:41;1.65;;;0.90;;
54881;SDS011;40775;51.448;4.742;2022-09-03T16:08:18;2.05;;;1.00;;
54881;SDS011;40775;51.448;4.742;2022-09-03T16:11:15;1.80;;;1.00;;
54881;SDS011;40775;51.448;4.742;2022-09-03T16:13:55;2.15;;;1.27;;
54881;SDS011;40775;51.448;4.742;2022-09-03T16:21:59;2.80;;;1.20;;
54881;SDS011;40775;51.448;4.742;2022-09-03T16:27:41;2.70;;;1.10;;
54881;SDS011;40775;51.448;4.742;2022-09-03T16:35:56;2.42;;;1.10;;
54881;SDS011;40775;51.448;4.742;2022-09-03T16:38:50;2.08;;;1.23;;
54881;SDS011;40775;51.448;4.742;2022-09-03T16:44:46;2.65;;;1.30;;
54881;SDS011;40775;51.448;4.742;2022-09-03T16:56:14;2.00;;;1.10;;
54881;SDS011;40775;51.448;4.742;2022-09-03T17:10:22;2.13;;;1.17;;
54881;SDS011;40775;51.448;4.742;2022-09-03T17:19:00;2.55;;;1.40;;
54881;SDS011;40775;51.448;4.742;2022-09-03T17:25:07;3.50;;;1.60;;
54881;SDS011;40775;51.448;4.742;2022-09-03T17:49:33;5.53;;;2.70;;
54881;SDS011;40775;51.448;4.742;2022-09-03T17:54:50;4.55;;;2.53;;
54881;SDS011;40775;51.448;4.742;2022-09-03T17:57:36;4.18;;;2.53;;
54881;SDS011;40775;51.448;4.742;2022-09-03T18:06:09;5.10;;;2.67;;
54881;SDS011;40775;51.448;4.742;2022-09-03T18:11:57;4.45;;;2.60;;
54881;SDS011;40775;51.448;4.742;2022-09-03T18:14:54;4.22;;;2.40;;
54881;SDS011;40775;51.448;4.742;2022-09-03T18:17:45;4.40;;;2.50;;
54881;SDS011;40775;51.448;4.742;2022-09-03T18:20:31;6.20;;;2.55;;
54881;SDS011;40775;51.448;4.742;2022-09-03T18:23:53;4.30;;;2.35;;
54881;SDS011;40775;51.448;4.742;2022-09-03T18:27:08;5.07;;;2.63;;
54881;SDS011;40775;51.448;4.742;2022-09-03T18:30:11;4.73;;;2.33;;
54881;SDS011;40775;51.448;4.742;2022-09-03T18:32:58;4.55;;;2.47;;
54881;SDS011;40775;51.448;4.742;2022-09-03T18:35:47;4.80;;;2.17;;
54881;SDS011;40775;51.448;4.742;2022-09-03T18:38:36;4.53;;;2.37;;
54881;SDS011;40775;51.448;4.742;2022-09-03T18:45:00;7.43;;;2.47;;
54881;SDS011;40775;51.448;4.742;2022-09-03T18:48:21;5.28;;;2.40;;
54881;SDS011;40775;51.448;4.742;2022-09-03T19:00:49;5.10;;;2.10;;
54881;SDS011;40775;51.448;4.742;2022-09-03T19:03:55;4.82;;;2.40;;
54881;SDS011;40775;51.448;4.742;2022-09-03T19:16:02;3.83;;;1.98;;
54881;SDS011;40775;51.448;4.742;2022-09-03T19:19:01;4.22;;;2.10;;
54881;SDS011;40775;51.448;4.742;2022-09-03T19:22:07;5.50;;;2.20;;
54881;SDS011;40775;51.448;4.742;2022-09-03T19:25:04;4.25;;;2.03;;
54881;SDS011;40775;51.448;4.742;2022-09-03T19:40:22;3.08;;;1.92;;
54881;SDS011;40775;51.448;4.742;2022-09-03T19:43:30;3.57;;;1.90;;
54881;SDS011;40775;51.448;4.742;2022-09-03T19:49:45;3.58;;;1.83;;
54881;SDS011;40775;51.448;4.742;2022-09-03T19:55:40;3.83;;;2.00;;
54881;SDS011;40775;51.448;4.742;2022-09-03T19:58:33;3.17;;;1.58;;
54881;SDS011;40775;51.448;4.742;2022-09-03T20:01:28;4.00;;;2.13;;
54881;SDS011;40775;51.448;4.742;2022-09-03T20:04:19;5.35;;;2.10;;
54881;SDS011;40775;51.448;4.742;2022-09-03T20:07:14;4.20;;;1.90;;
54881;SDS011;40775;51.448;4.742;2022-09-03T20:10:04;4.25;;;1.70;;
54881;SDS011;40775;51.448;4.742;2022-09-03T20:13:04;2.53;;;1.50;;
54881;SDS011;40775;51.448;4.742;2022-09-03T20:16:05;2.88;;;1.70;;
54881;SDS011;40775;51.448;4.742;2022-09-03T20:27:28;3.33;;;1.60;;
54881;SDS011;40775;51.448;4.742;2022-09-03T20:30:31;3.30;;;1.73;;
54881;SDS011;40775;51.448;4.742;2022-09-03T20:38:47;3.15;;;1.63;;
54881;SDS011;40775;51.448;4.742;2022-09-03T20:41:35;2.83;;;1.90;;
54881;SDS011;40775;51.448;4.742;2022-09-03T20:44:33;3.07;;;1.57;;
54881;SDS011;40775;51.448;4.742;2022-09-03T20:47:29;2.55;;;1.60;;
54881;SDS011;40775;51.448;4.742;2022-09-03T21:05:25;3.85;;;1.80;;
54881;SDS011;40775;51.448;4.742;2022-09-03T21:08:19;4.55;;;2.08;;
54881;SDS011;40775;51.448;4.742;2022-09-03T21:11:14;3.25;;;1.73;;
54881;SDS011;40775;51.448;4.742;2022-09-03T21:14:05;4.68;;;1.90;;
54881;SDS011;40775;51.448;4.742;2022-09-03T21:25:39;4.45;;;1.88;;
54881;SDS011;40775;51.448;4.742;2022-09-03T21:28:21;4.05;;;2.03;;
54881;SDS011;40775;51.448;4.742;2022-09-03T21:31:14;4.65;;;1.98;;
54881;SDS011;40775;51.448;4.742;2022-09-03T21:34:08;3.43;;;1.67;;
54881;SDS011;40775;51.448;4.742;2022-09-03T21:36:44;4.55;;;1.92;;
54881;SDS011;40775;51.448;4.742;2022-09-03T21:39:23;5.60;;;2.30;;
54881;SDS011;40775;51.448;4.742;2022-09-03T21:42:02;3.40;;;1.80;;
54881;SDS011;40775;51.448;4.742;2022-09-03T21:44:45;4.82;;;1.95;;
54881;SDS011;40775;51.448;4.742;2022-09-03T21:47:26;4.33;;;1.60;;
54881;SDS011;40775;51.448;4.742;2022-09-03T21:50:02;3.65;;;1.90;;
54881;SDS011;40775;51.448;4.742;2022-09-03T21:52:49;3.90;;;1.73;;
54881;SDS011;40775;51.448;4.742;2022-09-03T21:58:08;3.85;;;1.63;;
54881;SDS011;40775;51.448;4.742;2022-09-03T22:00:44;3.22;;;1.77;;
54881;SDS011;40775;51.448;4.742;2022-09-03T22:03:18;3.33;;;1.67;;
54881;SDS011;40775;51.448;4.742;2022-09-03T22:09:38;3.08;;;1.50;;
54881;SDS011;40775;51.448;4.742;2022-09-03T22:14:35;3.45;;;1.73;;
54881;SDS011;40775;51.448;4.742;2022-09-03T22:19:53;3.00;;;1.70;;